• Join FlightAware (Why Join?)
  • Login
  • US Flag 
09:22AM EDT


 

Airport Tracker/Info


-or-


 

Live Flight TrackerFlight Track Log ✈ RPA3865 ✈ 05-May-2013 ✈ KEWR - KPIT

Flight Track Log - Related Links

Times and Time Zones

All times are in EDT time to prevent confusion due to time zone crossing. See the RPA3865 flight status page for this flight to view local times or setup timezone preferences in your user account.

Time Position Orientation Groundspeed Altitude Reporting Facility
EDT Latitude Longitude Course Direction KTS MPH feet Rate Location/Type
07:29PM 40.6333 -74.2000 304° West 218 251 2,600  Level New York TRACON
07:30PM 40.6667 -74.2667 303° West 234 269 5,000 2,580 Climbing New York TRACON
07:30PM 40.7167 -74.3000 333° Northwest 230 265 7,600 2,340 Climbing New York TRACON
07:31PM 40.9837 -74.5134 317° Northwest  Level FlightAware Approximate
07:31PM 40.7833 -74.3333 339° North 247 284 9,500  Level New York TRACON
07:32PM 41.0566 -74.6060 316° Northwest  Level FlightAware Approximate
07:32PM 40.8333 -74.4000 315° West 280 322 11,200  Level New York TRACON
07:33PM 41.1333 -74.6841 270° West  Level FlightAware Approximate
07:33PM 40.9000 -74.4667 323° Northwest 297 342 12,900  Level New York TRACON
07:34PM 41.1756 -74.8012 304° West  Level FlightAware Approximate
07:34PM 40.9322 -74.4928 329° Northwest 307 353 13,500  Level New York Center
07:35PM 40.9867 -74.5478 323° Northwest 318 366 14,000 240 Climbing New York Center
07:36PM 41.0714 -74.6297 324° Northwest 342 394 14,000  Level New York Center
07:37PM 41.1439 -74.7108 320° Northwest 348 400 14,000  Level New York Center
07:38PM 41.1942 -74.8214 301° West 341 392 14,000 420 Level New York Center
07:39PM 41.2381 -74.9344 297° West 346 398 14,900 1,200 Climbing New York Center
07:40PM 41.2847 -75.0339 302° West 337 388 16,500 1,380 Climbing New York Center
07:41PM 41.3231 -75.1219 300° West 320 368 17,800 1,260 Climbing New York Center
07:42PM 41.3669 -75.2272 299° West 307 353 19,000 1,080 Climbing New York Center
07:43PM 41.4031 -75.3181 298° West 302 348 20,000 960 Climbing New York Center
07:44PM 41.4472 -75.4150 301° West 302 348 21,000 960 Climbing New York Center
07:45PM 41.4869 -75.5175 297° West 302 348 22,000 960 Climbing New York Center
07:46PM 41.5194 -75.6417 289° West 315 362 23,000 900 Climbing New York Center
07:47PM 41.5467 -75.7353 291° West 315 362 23,900 480 Climbing New York Center
07:48PM 41.5817 -75.8486 292° West 315 362 24,000  Climbing New York Center
07:49PM 41.6139 -75.9678 290° West 322 371 24,000  Level New York Center
07:50PM 41.6500 -76.0900 292° West 341 392 24,000  Level New York Center
07:51PM 41.6856 -76.2289 289° West 354 407 24,000  Level New York Center
07:52PM 41.7197 -76.3456 291° West 365 420 24,000  Level New York Center
07:53PM 41.7553 -76.4736 290° West 365 420 24,000  Level New York Center
07:54PM 41.7961 -76.6164 291° West 365 420 24,000  Level New York Center
07:55PM 41.8294 -76.7444 289° West 371 427 24,000  Level New York Center
07:56PM 41.8667 -76.8731 291° West 371 427 24,000  Level New York Center
07:56PM 41.8764 -76.9186 286° West 372 428 24,000  Level Cleveland Center
07:57PM 41.8531 -77.0369 255° West 362 417 24,000  Level Cleveland Center
07:58PM 41.8047 -77.1622 243° Southwest 362 417 24,000  Level Cleveland Center
07:59PM 41.7606 -77.2925 246° West 375 432 24,000  Level Cleveland Center
08:00PM 41.7164 -77.4200 245° Southwest 380 437 24,000  Level Cleveland Center
08:01PM 41.6658 -77.5561 244° Southwest 390 449 24,000  Level Cleveland Center
08:02PM 41.6211 -77.6858 245° Southwest 385 443 24,000  Level Cleveland Center
08:03PM 41.5764 -77.8128 245° Southwest 385 443 24,000  Level Cleveland Center
08:04PM 41.5333 -77.9367 245° Southwest 385 443 24,000  Level Cleveland Center
08:05PM 41.4903 -78.0606 245° Southwest 385 443 24,000 -480 Level Cleveland Center
08:06PM 41.4453 -78.1897 245° Southwest 385 443 23,100 -960 Descending Cleveland Center
08:07PM 41.4017 -78.3103 244° Southwest 385 443 22,100 -420 Descending Cleveland Center
08:09PM 41.3147 -78.5594 245° Southwest 379 436 22,000 -120 Descending Cleveland Center
08:11PM 41.2125 -78.8056 241° Southwest 384 442 21,800 -960 Descending Cleveland Center
08:13PM 41.1433 -78.9382 235° Southwest  Level FlightAware Approximate
08:13PM 41.0969 -79.0375 235° Southwest 384 442 18,300  Level Cleveland Center
08:14PM 41.0422 -79.1489 237° Southwest 378 435 16,700 -1,620 Descending Cleveland Center
08:15PM 40.9892 -79.2544 236° Southwest 367 422 15,100 -1,620 Descending Cleveland Center
08:17PM 40.9118 -79.3808 231° Southwest  Level FlightAware Approximate
08:17PM 40.8872 -79.4542 231° Southwest 343 395 11,900  Level Cleveland Center
08:19PM 40.8054 -79.5753 228° Southwest  Level FlightAware Approximate
08:19PM 40.7950 -79.6369 228° Southwest 313 360 10,000  Level Cleveland Center
08:20PM 40.7519 -79.7281 238° Southwest 302 348 10,000  Level Cleveland Center
08:21PM 40.7067 -79.8161 236° Southwest 302 348 10,000  Level Cleveland Center
08:22PM 40.6633 -79.9014 236° Southwest 297 342 10,000 -180 Level Cleveland Center
08:23PM 40.6264 -79.9978 243° Southwest 297 342 9,700 -960 Descending Cleveland Center
08:24PM 40.6061 -80.1017 256° West 292 336 8,100 -900 Descending Cleveland Center
08:25PM 40.5856 -80.1950 254° West 284 327 8,000 -120 Descending Cleveland Center
08:27PM 40.4833 -80.2167 237° Southwest  Level FlightAware Approximate
08:34PM 40.4915 -80.2329 237° Southwest  Level Estimated